createdAt,value
2023-10-12T00:02:28.061Z,3.95
2023-10-12T00:05:01.505Z,4.10
2023-10-12T00:07:35.490Z,4.03
2023-10-12T00:10:12.487Z,3.95
2023-10-12T00:12:45.774Z,3.55
2023-10-12T00:15:26.768Z,4.32
2023-10-12T00:17:59.409Z,4.03
2023-10-12T00:20:32.932Z,4.13
2023-10-12T00:23:00.672Z,4.85
2023-10-12T00:25:27.866Z,3.97
2023-10-12T00:27:54.631Z,3.63
2023-10-12T00:30:22.202Z,4.55
2023-10-12T00:32:49.343Z,3.63
2023-10-12T00:35:18.253Z,4.47
2023-10-12T00:37:45.161Z,4.20
2023-10-12T00:40:42.657Z,3.80
2023-10-12T00:43:13.162Z,4.43
2023-10-12T00:45:40.689Z,3.78
2023-10-12T00:48:16.930Z,3.47
2023-10-12T00:50:48.743Z,3.78
2023-10-12T00:53:23.487Z,4.07
2023-10-12T00:55:52.247Z,4.55
2023-10-12T00:58:23.199Z,4.05
2023-10-12T01:00:53.362Z,4.05
2023-10-12T01:03:36.591Z,3.95
2023-10-12T01:06:12.602Z,3.97
2023-10-12T01:08:44.048Z,3.97
2023-10-12T01:11:19.173Z,3.42
2023-10-12T01:13:48.366Z,3.80
2023-10-12T01:16:25.087Z,3.65
2023-10-12T01:19:01.751Z,4.03
2023-10-12T01:21:30.179Z,4.07
2023-10-12T01:24:03.067Z,3.83
2023-10-12T01:26:32.732Z,3.70
2023-10-12T01:29:01.533Z,3.75
2023-10-12T01:31:29.715Z,3.78
2023-10-12T01:33:59.273Z,4.18
2023-10-12T01:36:31.557Z,3.67
2023-10-12T01:39:15.462Z,3.92
2023-10-12T01:41:42.602Z,3.53
2023-10-12T01:44:11.822Z,3.90
2023-10-12T01:46:42.298Z,3.97
2023-10-12T01:49:12.650Z,3.97
2023-10-12T01:51:45.999Z,4.05
2023-10-12T01:54:13.620Z,3.92
2023-10-12T01:56:40.595Z,3.88
2023-10-12T01:59:08.749Z,3.67
2023-10-12T02:01:36.535Z,3.63
2023-10-12T02:04:05.107Z,3.70
2023-10-12T02:06:32.059Z,4.18
2023-10-12T02:09:11.434Z,4.47
2023-10-12T02:11:46.275Z,3.35
2023-10-12T02:14:13.850Z,3.90
2023-10-12T02:16:54.092Z,4.00
2023-10-12T02:19:32.925Z,3.80
2023-10-12T02:22:02.443Z,3.22
2023-10-12T02:24:29.953Z,3.13
2023-10-12T02:27:01.434Z,3.72
2023-10-12T02:29:31.048Z,3.55
2023-10-12T02:32:00.178Z,3.60
2023-10-12T02:34:28.566Z,4.00
2023-10-12T02:37:09.616Z,3.40
2023-10-12T02:39:43.826Z,3.83
2023-10-12T02:42:17.631Z,3.95
2023-10-12T02:44:56.005Z,3.25
2023-10-12T02:47:31.387Z,3.80
2023-10-12T02:50:16.701Z,3.80
2023-10-12T02:52:48.362Z,3.97
2023-10-12T02:55:26.175Z,4.15
2023-10-12T02:58:00.753Z,4.20
2023-10-12T03:00:44.815Z,4.15
2023-10-12T03:03:39.113Z,3.67
2023-10-12T03:06:09.689Z,4.07
2023-10-12T03:08:48.791Z,3.70
2023-10-12T03:11:20.989Z,3.83
2023-10-12T03:14:14.756Z,4.50
2023-10-12T03:16:45.629Z,4.40
2023-10-12T03:19:25.436Z,4.15
2023-10-12T03:21:52.917Z,4.07
2023-10-12T03:24:30.951Z,4.57
2023-10-12T03:27:03.677Z,4.53
2023-10-12T03:29:30.431Z,4.22
2023-10-12T03:31:58.973Z,4.97
2023-10-12T03:34:35.723Z,4.70
2023-10-12T03:37:14.341Z,5.03
2023-10-12T03:40:00.993Z,4.38
2023-10-12T03:42:28.775Z,4.67
2023-10-12T03:45:15.186Z,4.70
2023-10-12T03:48:03.695Z,5.03
2023-10-12T03:50:35.725Z,4.37
2023-10-12T03:53:07.067Z,4.90
2023-10-12T03:55:35.882Z,4.50
2023-10-12T03:58:08.954Z,5.07
2023-10-12T04:00:49.297Z,4.90
2023-10-12T04:03:36.119Z,4.85
2023-10-12T04:06:24.269Z,5.03
2023-10-12T04:08:56.021Z,4.60
2023-10-12T04:11:42.024Z,4.97
2023-10-12T04:14:41.354Z,5.53
2023-10-12T04:17:10.292Z,4.97
2023-10-12T04:19:43.390Z,5.63
2023-10-12T04:22:26.593Z,5.32
2023-10-12T04:24:57.037Z,5.60
2023-10-12T04:27:32.653Z,5.38
2023-10-12T04:30:01.768Z,5.10
2023-10-12T04:32:47.864Z,5.50
2023-10-12T04:35:33.928Z,5.50
2023-10-12T04:38:09.864Z,5.38
2023-10-12T04:40:38.720Z,5.70
2023-10-12T04:43:08.676Z,5.78
2023-10-12T04:45:57.777Z,5.38
2023-10-12T04:48:32.636Z,5.80
2023-10-12T04:51:08.406Z,6.27
2023-10-12T04:53:59.075Z,5.43
2023-10-12T04:56:27.724Z,5.90
2023-10-12T04:58:58.060Z,5.60
2023-10-12T05:01:42.029Z,5.93
2023-10-12T05:04:27.930Z,6.13
2023-10-12T05:07:13.293Z,5.80
2023-10-12T05:09:40.019Z,5.55
2023-10-12T05:12:07.803Z,6.00
2023-10-12T05:14:34.974Z,6.27
2023-10-12T05:17:02.150Z,5.90
2023-10-12T05:19:29.271Z,5.60
2023-10-12T05:21:59.461Z,6.40
2023-10-12T05:24:26.475Z,6.13
2023-10-12T05:26:58.969Z,6.55
2023-10-12T05:29:26.271Z,5.83
2023-10-12T05:32:19.411Z,6.67
2023-10-12T05:34:47.769Z,6.77
2023-10-12T05:37:28.315Z,7.00
2023-10-12T05:39:56.692Z,6.23
2023-10-12T05:42:24.101Z,7.07
2023-10-12T05:44:52.436Z,7.43
2023-10-12T05:47:29.598Z,7.47
2023-10-12T05:50:00.332Z,7.87
2023-10-12T05:52:27.517Z,6.87
2023-10-12T05:55:00.718Z,7.40
2023-10-12T05:57:31.190Z,7.50
2023-10-12T06:00:01.916Z,7.68
2023-10-12T06:02:30.000Z,7.77
2023-10-12T06:04:58.164Z,8.17
2023-10-12T06:07:25.637Z,7.83
2023-10-12T06:09:54.741Z,7.80
2023-10-12T06:12:26.007Z,8.10
2023-10-12T06:14:57.048Z,8.43
2023-10-12T06:17:32.200Z,8.03
2023-10-12T06:20:12.736Z,8.30
2023-10-12T06:22:39.926Z,8.43
2023-10-12T06:25:19.647Z,8.53
2023-10-12T06:27:46.405Z,8.30
2023-10-12T06:30:20.096Z,8.07
2023-10-12T06:32:48.103Z,8.47
2023-10-12T06:35:25.188Z,7.93
2023-10-12T06:37:58.340Z,8.30
2023-10-12T06:40:26.990Z,8.13
2023-10-12T06:43:14.810Z,8.65
2023-10-12T06:45:56.684Z,8.55
2023-10-12T06:48:31.965Z,7.47
2023-10-12T06:51:04.175Z,9.43
2023-10-12T06:53:35.361Z,8.13
2023-10-12T06:56:21.648Z,8.60
2023-10-12T06:59:12.555Z,8.20
2023-10-12T07:01:49.953Z,8.17
2023-10-12T07:04:29.635Z,8.27
2023-10-12T07:07:02.186Z,8.07
2023-10-12T07:09:47.704Z,7.60
2023-10-12T07:12:16.102Z,7.87
2023-10-12T07:14:54.475Z,8.57
2023-10-12T07:17:33.369Z,8.33
2023-10-12T07:20:00.735Z,8.50
2023-10-12T07:22:30.654Z,7.93
2023-10-12T07:24:58.547Z,8.33
2023-10-12T07:27:25.960Z,7.90
2023-10-12T07:30:09.670Z,8.47
2023-10-12T07:32:40.815Z,7.13
2023-10-12T07:35:12.969Z,7.17
2023-10-12T07:37:43.322Z,7.93
2023-10-12T07:40:20.726Z,7.93
2023-10-12T07:42:48.221Z,7.57
2023-10-12T07:45:16.460Z,8.50
2023-10-12T07:47:47.065Z,8.33
2023-10-12T07:50:19.014Z,7.53
2023-10-12T07:52:49.296Z,10.80
2023-10-12T07:55:18.617Z,14.50
2023-10-12T07:57:47.396Z,16.60
2023-10-12T08:00:14.648Z,27.40
2023-10-12T08:02:49.047Z,27.13
2023-10-12T08:05:25.474Z,24.23
2023-10-12T08:08:02.259Z,23.17
2023-10-12T08:10:40.476Z,21.13
2023-10-12T08:13:26.767Z,11.90
2023-10-12T08:15:55.724Z,9.93
2023-10-12T08:18:42.482Z,8.73
2023-10-12T08:21:24.171Z,9.27
2023-10-12T08:24:05.043Z,7.90
2023-10-12T08:26:48.593Z,8.60
2023-10-12T08:29:23.119Z,7.40
2023-10-12T08:32:13.961Z,8.32
2023-10-12T08:35:04.191Z,9.32
2023-10-12T08:37:38.191Z,9.57
2023-10-12T08:40:18.630Z,9.30
2023-10-12T08:42:59.804Z,9.10
2023-10-12T08:45:30.929Z,7.67
2023-10-12T08:48:03.337Z,7.43
2023-10-12T08:50:52.990Z,7.53
2023-10-12T08:53:23.644Z,8.50
2023-10-12T08:55:53.150Z,7.78
2023-10-12T08:58:40.464Z,8.80
2023-10-12T09:01:11.075Z,7.65
2023-10-12T09:03:40.207Z,7.57
2023-10-12T09:06:21.146Z,7.95
2023-10-12T09:08:48.234Z,7.35
2023-10-12T09:11:15.473Z,7.10
2023-10-12T09:13:46.616Z,7.60
2023-10-12T09:16:15.610Z,6.82
2023-10-12T09:18:58.474Z,7.25
2023-10-12T09:21:30.241Z,8.00
2023-10-12T09:24:06.730Z,7.30
2023-10-12T09:26:35.569Z,6.60
2023-10-12T09:29:09.840Z,7.35
2023-10-12T09:31:38.334Z,7.20
2023-10-12T09:34:13.032Z,7.40
2023-10-12T09:36:45.688Z,7.97
2023-10-12T09:39:17.746Z,7.90
2023-10-12T09:41:56.527Z,5.97
2023-10-12T09:44:35.998Z,7.03
2023-10-12T09:47:10.302Z,7.20
2023-10-12T09:49:44.986Z,6.75
2023-10-12T09:52:15.105Z,6.72
2023-10-12T09:54:50.882Z,6.38
2023-10-12T09:57:24.275Z,7.03
2023-10-12T09:59:54.986Z,7.05
2023-10-12T10:02:29.249Z,6.60
2023-10-12T10:05:13.175Z,7.18
2023-10-12T10:07:55.148Z,6.75
2023-10-12T10:10:34.563Z,7.03
2023-10-12T10:13:06.740Z,6.93
2023-10-12T10:15:45.630Z,7.05
2023-10-12T10:18:17.456Z,7.03
2023-10-12T10:20:47.837Z,7.13
2023-10-12T10:23:20.733Z,6.32
2023-10-12T10:25:57.802Z,6.13
2023-10-12T10:28:28.942Z,6.38
2023-10-12T10:31:00.971Z,7.30
2023-10-12T10:33:30.169Z,6.70
2023-10-12T10:36:00.088Z,6.68
2023-10-12T10:38:34.746Z,7.15
2023-10-12T10:41:08.974Z,6.55
2023-10-12T10:43:40.705Z,7.15
2023-10-12T10:46:12.150Z,6.50
2023-10-12T10:51:12.338Z,6.32
2023-10-12T10:53:39.615Z,6.15
2023-10-12T10:56:16.604Z,6.05
2023-10-12T10:58:47.316Z,6.35
2023-10-12T11:01:15.778Z,6.53
2023-10-12T11:03:47.516Z,6.07
2023-10-12T11:06:22.502Z,5.88
2023-10-12T11:09:15.129Z,5.97
2023-10-12T11:11:54.128Z,5.75
2023-10-12T11:14:25.608Z,6.78
2023-10-12T11:16:55.658Z,5.88
2023-10-12T11:19:24.886Z,6.13
2023-10-12T11:21:55.129Z,5.78
2023-10-12T11:24:24.953Z,5.38
2023-10-12T11:26:59.303Z,5.60
2023-10-12T11:29:27.049Z,5.53
2023-10-12T11:32:11.193Z,5.70
2023-10-12T11:34:45.882Z,5.97
2023-10-12T11:37:16.648Z,5.55
2023-10-12T11:39:53.752Z,5.72
2023-10-12T11:42:21.442Z,5.90
2023-10-12T11:44:50.099Z,6.15
2023-10-12T11:47:25.647Z,5.78
2023-10-12T11:49:59.438Z,5.63
2023-10-12T11:52:31.698Z,6.60
2023-10-12T11:55:08.821Z,7.15
2023-10-12T11:57:38.995Z,5.60
2023-10-12T12:00:22.205Z,5.20
2023-10-12T12:02:59.011Z,5.43
2023-10-12T12:05:27.919Z,5.80
2023-10-12T12:07:55.181Z,5.60
2023-10-12T12:10:39.648Z,5.65
2023-10-12T12:13:10.099Z,5.40
2023-10-12T12:15:37.596Z,5.43
2023-10-12T12:18:15.080Z,5.25
2023-10-12T12:20:45.557Z,5.35
2023-10-12T12:23:13.060Z,5.45
2023-10-12T12:25:40.838Z,5.82
2023-10-12T12:28:09.036Z,5.28
2023-10-12T12:33:15.275Z,5.10
2023-10-12T12:35:42.454Z,6.13
2023-10-12T12:38:28.259Z,5.32
2023-10-12T12:40:56.084Z,4.80
2023-10-12T12:43:23.142Z,5.85
2023-10-12T12:45:50.356Z,6.05
2023-10-12T12:48:17.089Z,5.47
2023-10-12T12:50:49.167Z,4.82
2023-10-12T12:53:19.799Z,6.22
2023-10-12T12:55:47.424Z,6.03
2023-10-12T12:58:16.690Z,6.10
2023-10-12T13:00:47.895Z,5.40
2023-10-12T13:03:16.028Z,5.22
2023-10-12T13:05:42.842Z,5.10
2023-10-12T13:08:12.306Z,5.30
2023-10-12T13:10:39.804Z,5.47
2023-10-12T13:13:07.822Z,4.75
2023-10-12T13:15:53.246Z,5.68
2023-10-12T13:18:20.407Z,5.00
2023-10-12T13:20:48.117Z,5.80
2023-10-12T13:23:16.821Z,5.00
2023-10-12T13:25:43.686Z,5.22
2023-10-12T13:28:11.444Z,5.45
2023-10-12T13:30:38.359Z,5.90
2023-10-12T13:33:07.215Z,5.50
2023-10-12T13:35:43.482Z,5.85
2023-10-12T13:38:11.648Z,5.68
2023-10-12T13:40:42.362Z,5.18
2023-10-12T13:43:18.125Z,5.80
2023-10-12T13:45:50.174Z,5.40
2023-10-12T13:48:22.385Z,5.50
2023-10-12T13:51:18.900Z,5.70
2023-10-12T13:53:47.358Z,5.75
2023-10-12T13:56:14.429Z,5.55
2023-10-12T13:58:42.686Z,6.05
2023-10-12T14:01:16.042Z,5.25
2023-10-12T14:03:46.785Z,5.28
2023-10-12T14:06:14.338Z,5.18
2023-10-12T14:08:42.132Z,5.05
2023-10-12T14:11:15.304Z,5.25
2023-10-12T14:13:42.696Z,5.72
2023-10-12T14:16:11.046Z,5.10
2023-10-12T14:18:42.317Z,4.85
2023-10-12T14:21:16.296Z,5.32
2023-10-12T14:23:48.824Z,5.38
2023-10-12T14:26:19.050Z,4.80
2023-10-12T14:28:52.268Z,5.32
2023-10-12T14:31:23.766Z,5.47
2023-10-12T14:33:53.309Z,4.97
2023-10-12T14:36:20.729Z,6.68
2023-10-12T14:38:48.797Z,7.22
2023-10-12T14:41:18.626Z,7.38
2023-10-12T14:43:48.858Z,6.68
2023-10-12T14:46:19.631Z,6.65
2023-10-12T14:48:51.233Z,5.57
2023-10-12T14:51:21.999Z,5.50
2023-10-12T14:53:51.654Z,5.55
2023-10-12T14:56:28.610Z,4.95
2023-10-12T14:58:56.960Z,5.13
2023-10-12T15:01:29.295Z,5.40
2023-10-12T15:03:56.921Z,5.45
2023-10-12T15:06:23.962Z,4.75
2023-10-12T15:08:54.152Z,5.00
2023-10-12T15:11:21.159Z,5.63
2023-10-12T15:13:50.064Z,5.25
2023-10-12T15:16:17.276Z,5.47
2023-10-12T15:18:44.564Z,5.20
2023-10-12T15:21:28.632Z,5.25
2023-10-12T15:23:56.705Z,5.38
2023-10-12T15:26:24.029Z,5.30
2023-10-12T15:28:52.544Z,5.73
2023-10-12T15:31:24.552Z,5.70
2023-10-12T15:33:51.931Z,6.07
2023-10-12T15:36:19.283Z,6.20
2023-10-12T15:38:46.558Z,6.32
2023-10-12T15:41:13.323Z,5.82
2023-10-12T15:43:40.446Z,6.73
2023-10-12T15:46:10.452Z,5.95
2023-10-12T15:48:37.731Z,6.18
2023-10-12T15:51:05.259Z,5.90
2023-10-12T15:53:33.609Z,5.65
2023-10-12T15:56:01.022Z,5.70
2023-10-12T15:58:29.012Z,5.95
2023-10-12T16:00:56.918Z,5.47
2023-10-12T16:03:24.848Z,6.30
2023-10-12T16:05:53.625Z,6.00
2023-10-12T16:08:22.337Z,5.70
2023-10-12T16:10:53.142Z,6.07
2023-10-12T16:13:19.853Z,5.57
2023-10-12T16:15:47.194Z,5.43
2023-10-12T16:18:14.154Z,5.50
2023-10-12T16:20:41.417Z,5.28
2023-10-12T16:23:08.287Z,6.10
2023-10-12T16:25:35.530Z,5.57
2023-10-12T16:28:03.634Z,5.50
2023-10-12T16:30:35.910Z,5.45
2023-10-12T16:33:03.478Z,5.30
2023-10-12T16:35:30.623Z,5.55
2023-10-12T16:38:01.856Z,6.47
2023-10-12T16:40:31.351Z,6.88
2023-10-12T16:42:58.136Z,6.40
2023-10-12T16:45:26.529Z,6.40
2023-10-12T16:47:53.792Z,5.95
2023-10-12T16:50:20.657Z,6.05
2023-10-12T16:52:50.487Z,6.38
2023-10-12T16:55:18.619Z,5.83
2023-10-12T16:57:46.497Z,5.67
2023-10-12T17:00:17.580Z,6.10
2023-10-12T17:02:46.322Z,5.77
2023-10-12T17:05:20.586Z,5.68
2023-10-12T17:07:47.775Z,5.40
2023-10-12T17:10:26.884Z,6.10
2023-10-12T17:12:54.364Z,6.00
2023-10-12T17:15:22.336Z,5.93
2023-10-12T17:17:51.288Z,5.43
2023-10-12T17:20:18.608Z,5.93
2023-10-12T17:22:47.072Z,5.83
2023-10-12T17:25:14.496Z,5.45
2023-10-12T17:27:44.531Z,6.03
2023-10-12T17:30:12.371Z,6.30
2023-10-12T17:32:42.050Z,6.10
2023-10-12T17:35:15.876Z,6.15
2023-10-12T17:37:43.683Z,5.87
2023-10-12T17:40:11.872Z,5.15
2023-10-12T17:42:38.883Z,6.93
2023-10-12T17:45:10.945Z,7.50
2023-10-12T17:47:41.653Z,7.30
2023-10-12T17:50:16.159Z,6.87
2023-10-12T17:52:44.711Z,7.13
2023-10-12T17:55:12.698Z,7.73
2023-10-12T17:57:39.410Z,7.23
2023-10-12T18:00:11.118Z,7.32
2023-10-12T18:02:39.531Z,7.30
2023-10-12T18:05:10.163Z,7.00
2023-10-12T18:07:37.314Z,6.57
2023-10-12T18:10:05.008Z,6.33
2023-10-12T18:12:31.910Z,6.23
2023-10-12T18:14:59.137Z,6.87
2023-10-12T18:17:26.412Z,6.27
2023-10-12T18:19:56.291Z,6.53
2023-10-12T18:22:24.706Z,7.83
2023-10-12T18:24:54.351Z,6.82
2023-10-12T18:27:21.092Z,7.13
2023-10-12T18:29:47.867Z,7.63
2023-10-12T18:32:16.318Z,7.03
2023-10-12T18:34:46.910Z,7.63
2023-10-12T18:37:13.887Z,7.53
2023-10-12T18:39:41.648Z,7.87
2023-10-12T18:42:10.569Z,8.03
2023-10-12T18:44:37.742Z,8.80
2023-10-12T18:47:06.011Z,7.87
2023-10-12T18:49:32.861Z,8.60
2023-10-12T18:51:59.800Z,8.67
2023-10-12T18:54:27.230Z,7.60
2023-10-12T18:56:54.002Z,8.17
2023-10-12T18:59:21.440Z,7.90
2023-10-12T19:01:51.007Z,7.20
2023-10-12T19:04:18.168Z,8.60
2023-10-12T19:06:49.523Z,7.73
2023-10-12T19:09:16.461Z,8.80
2023-10-12T19:11:43.360Z,8.10
2023-10-12T19:14:11.102Z,9.00
2023-10-12T19:16:39.511Z,7.93
2023-10-12T19:19:08.621Z,7.53
2023-10-12T19:21:38.754Z,8.33
2023-10-12T19:24:07.251Z,7.40
2023-10-12T19:26:34.386Z,7.75
2023-10-12T19:29:03.710Z,8.35
2023-10-12T19:31:31.952Z,7.30
2023-10-12T19:33:58.905Z,8.57
2023-10-12T19:36:26.124Z,8.00
2023-10-12T19:38:52.917Z,8.47
2023-10-12T19:41:20.194Z,7.80
2023-10-12T19:43:48.059Z,8.17
2023-10-12T19:46:16.027Z,7.95
2023-10-12T19:48:45.892Z,7.87
2023-10-12T19:51:14.684Z,8.20
2023-10-12T19:53:47.392Z,7.83
2023-10-12T19:56:16.014Z,8.35
2023-10-12T19:58:45.421Z,8.20
2023-10-12T20:01:15.181Z,8.97
2023-10-12T20:03:46.242Z,8.70
2023-10-12T20:06:13.176Z,8.50
2023-10-12T20:08:40.248Z,8.63
2023-10-12T20:11:07.832Z,8.10
2023-10-12T20:13:35.367Z,8.53
2023-10-12T20:16:06.375Z,8.53
2023-10-12T20:18:33.673Z,8.00
2023-10-12T20:21:00.880Z,8.13
2023-10-12T20:23:28.142Z,7.93
2023-10-12T20:25:55.067Z,8.00
2023-10-12T20:28:24.732Z,8.13
2023-10-12T20:30:53.018Z,8.00
2023-10-12T20:33:21.210Z,9.17
2023-10-12T20:35:49.071Z,8.27
2023-10-12T20:38:21.617Z,8.90
2023-10-12T20:40:49.458Z,8.03
2023-10-12T20:43:17.684Z,9.10
2023-10-12T20:45:55.982Z,7.10
2023-10-12T20:48:23.823Z,8.20
2023-10-12T20:51:09.578Z,6.17
2023-10-12T20:53:37.229Z,6.90
2023-10-12T20:56:09.495Z,7.27
2023-10-12T20:58:43.788Z,7.03
2023-10-12T21:01:31.935Z,6.80
2023-10-12T21:03:59.165Z,6.53
2023-10-12T21:06:28.325Z,7.17
2023-10-12T21:09:02.152Z,6.40
2023-10-12T21:11:33.168Z,6.80
2023-10-12T21:14:05.307Z,6.80
2023-10-12T21:16:33.710Z,7.03
2023-10-12T21:19:21.055Z,5.53
2023-10-12T21:21:51.164Z,5.80
2023-10-12T21:24:19.176Z,6.23
2023-10-12T21:26:47.379Z,6.20
2023-10-12T21:29:23.045Z,5.63
2023-10-12T21:32:02.786Z,5.70
2023-10-12T21:34:32.714Z,6.50
2023-10-12T21:37:03.632Z,6.43
2023-10-12T21:39:36.524Z,5.67
2023-10-12T21:42:06.471Z,5.67
2023-10-12T21:44:33.569Z,5.73
2023-10-12T21:47:04.002Z,6.47
2023-10-12T21:49:34.234Z,5.67
2023-10-12T21:52:01.502Z,5.53
2023-10-12T21:54:28.784Z,6.07
2023-10-12T21:56:55.983Z,5.32
2023-10-12T21:59:23.815Z,5.67
2023-10-12T22:02:04.038Z,5.40
2023-10-12T22:04:36.139Z,6.27
2023-10-12T22:07:07.567Z,5.33
2023-10-12T22:09:44.814Z,5.80
2023-10-12T22:12:14.440Z,4.83
2023-10-12T22:14:59.977Z,5.93
2023-10-12T22:17:28.724Z,5.50
2023-10-12T22:19:57.491Z,5.87
2023-10-12T22:22:24.852Z,5.73
2023-10-12T22:24:54.215Z,6.90
2023-10-12T22:27:22.396Z,6.37
2023-10-12T22:29:49.184Z,5.70
2023-10-12T22:32:16.323Z,6.13
2023-10-12T22:34:43.053Z,6.00
2023-10-12T22:37:14.851Z,7.50
2023-10-12T22:39:43.117Z,5.50
2023-10-12T22:42:10.000Z,6.05
2023-10-12T22:44:36.872Z,6.77
2023-10-12T22:47:04.440Z,6.73
2023-10-12T22:49:34.784Z,6.83
2023-10-12T22:52:01.804Z,7.17
2023-10-12T22:54:34.718Z,8.00
2023-10-12T22:57:06.450Z,6.68
2023-10-12T22:59:33.779Z,7.13
2023-10-12T23:02:01.148Z,6.90
2023-10-12T23:04:28.680Z,6.87
2023-10-12T23:06:55.935Z,6.67
2023-10-12T23:09:24.522Z,7.10
2023-10-12T23:11:56.029Z,7.27
2023-10-12T23:14:25.159Z,7.30
2023-10-12T23:16:53.144Z,6.93
2023-10-12T23:19:37.577Z,7.20
2023-10-12T23:22:23.176Z,7.10
2023-10-12T23:24:50.196Z,7.53
2023-10-12T23:27:17.567Z,7.53
2023-10-12T23:29:46.656Z,7.53
2023-10-12T23:32:15.149Z,7.30
2023-10-12T23:34:45.496Z,7.20
2023-10-12T23:37:13.519Z,8.20
2023-10-12T23:39:46.934Z,7.30
2023-10-12T23:42:15.414Z,7.23
2023-10-12T23:44:51.827Z,7.77
2023-10-12T23:47:39.415Z,8.70
2023-10-12T23:50:10.428Z,7.10
2023-10-12T23:52:53.306Z,7.47
2023-10-12T23:55:30.631Z,7.60
2023-10-12T23:58:02.668Z,8.13
